Dades meteomassalio
Diari Summary for Juny 5, 2017 Units:  English    Metric   Both
« Previous Day
Next Day »
Diari Semanal Mensual Anual Personalitzat
  Maxima: Minima: Mijana:
Temperatura: TemperatureC °F 12.8 °F 17.3 °F
Rosada: DewpointC °F 10.6 °F 12.1 °F
Humitat: Humidity % 45 % 73 %
Velocitat del vent: WindSpeedKMH mph 0.0 mph 12.2 mph
Racha vent: WindSpeedGustKMH mph - -
Vent:- - WNW
Pressio: PressurehPa in 1012.8 in -
Pluja: 0.3 in    
Historical Graphs
 
 
Tabular Data for Juny 5, 2017
Time Temperature Dew Point Pressure Wind Wind Speed Wind Gust Humidity Rainfall Rate (Hourly) solar Conditions
TemperatureC °F DewpointC °F PressurehPa in Calm     Humidity % HourlyPrecipMM in SolarRadiationWatts/m^2 W/m2 Conditions
00:00 14.4 °F 13.3 °F 1016.8 in NW 16.7 mph 16.7 mph 93 % 0.0 in 0.0 W/m2 RA
00:05 14.4 °F 13.3 °F 1016.5 in WNW 16.7 mph 16.7 mph 93 % 0.0 in 0.0 W/m2 CLR
00:10 14.3 °F 13.2 °F 1016.5 in NW 22.2 mph 22.2 mph 93 % 0.0 in 0.0 W/m2 CLR
00:15 14.3 °F 13.2 °F 1016.5 in NW 22.2 mph 22.2 mph 93 % 0.0 in 0.0 W/m2 CLR
00:20 14.3 °F 13.2 °F 1016.5 in NW 22.2 mph 22.2 mph 93 % 0.0 in 0.0 W/m2 CLR
00:25 14.3 °F 13.2 °F 1016.1 in NW 27.8 mph 27.8 mph 93 % 0.0 in 0.0 W/m2 CLR
00:30 14.3 °F 13.2 °F 1016.5 in WNW 22.2 mph 22.2 mph 93 % 0.0 in 0.0 W/m2 CLR
00:35 14.3 °F 13.2 °F 1016.5 in NNW 29.6 mph 29.6 mph 93 % 0.0 in 0.0 W/m2 CLR
00:40 14.2 °F 13.1 °F 1016.5 in NNW 31.5 mph 31.5 mph 93 % 0.0 in 0.0 W/m2 CLR
00:45 14.2 °F 12.9 °F 1016.5 in WNW 27.8 mph 27.8 mph 92 % 0.0 in 0.0 W/m2 CLR
00:50 14.1 °F 12.8 °F 1016.8 in WNW 24.1 mph 24.1 mph 92 % 0.0 in 0.0 W/m2 CLR
00:55 14.0 °F 12.7 °F 1016.5 in NNW 31.5 mph 31.5 mph 92 % 0.0 in 0.0 W/m2 CLR
01:00 14.0 °F 12.7 °F 1016.8 in NW 22.2 mph 22.2 mph 92 % 0.0 in 0.0 W/m2 CLR
01:05 13.9 °F 12.7 °F 1016.8 in WNW 22.5 mph 22.5 mph 92 % 0.0 in 0.0 W/m2 CLR
01:10 13.9 °F 12.6 °F 1016.8 in WNW 29.6 mph 29.6 mph 92 % 0.0 in 0.0 W/m2 CLR
01:15 13.8 °F 12.6 °F 1016.5 in WNW 25.9 mph 25.9 mph 92 % 0.0 in 0.0 W/m2 CLR
01:20 13.7 °F 12.4 °F 1016.5 in WNW 20.4 mph 20.4 mph 92 % 0.0 in 0.0 W/m2 CLR
01:25 13.7 °F 12.2 °F 1016.5 in WNW 22.2 mph 22.2 mph 91 % 0.0 in 0.0 W/m2 CLR
01:30 13.6 °F 12.2 °F 1016.5 in WNW 27.8 mph 27.8 mph 91 % 0.0 in 0.0 W/m2 CLR
01:35 13.6 °F 12.1 °F 1016.5 in NW 24.1 mph 24.1 mph 91 % 0.0 in 0.0 W/m2 CLR
01:40 13.5 °F 12.1 °F 1016.5 in WNW 27.8 mph 27.8 mph 91 % 0.0 in 0.0 W/m2 CLR
01:42 13.5 °F 12.1 °F 1016.5 in NNW 22.5 mph 22.5 mph 91 % 0.0 in 0.0 W/m2 CLR
01:47 13.4 °F 12.0 °F 1016.5 in NW 29.6 mph 29.6 mph 91 % 0.0 in 0.0 W/m2 CLR
01:52 13.4 °F 11.9 °F 1016.5 in WNW 27.8 mph 27.8 mph 91 % 0.0 in 0.0 W/m2 CLR
01:53 13.4 °F 11.9 °F 1016.5 in NNW 27.4 mph 27.4 mph 91 % 0.0 in 0.0 W/m2 CLR
01:58 13.4 °F 11.9 °F 1016.5 in NW 27.8 mph 27.8 mph 91 % 0.0 in 0.0 W/m2 CLR
02:03 13.4 °F 11.9 °F 1016.5 in NNW 20.9 mph 20.9 mph 91 % 0.0 in 0.0 W/m2 CLR
02:08 13.3 °F 11.9 °F 1016.5 in NW 25.9 mph 25.9 mph 91 % 0.0 in 0.0 W/m2 CLR
02:13 13.3 °F 11.9 °F 1016.5 in NW 27.8 mph 27.8 mph 91 % 0.0 in 0.0 W/m2 CLR
02:18 13.3 °F 11.7 °F 1016.5 in WNW 22.2 mph 22.2 mph 90 % 0.0 in 0.0 W/m2 CLR
02:23 13.2 °F 11.6 °F 1016.5 in NW 33.8 mph 33.8 mph 90 % 0.0 in 0.0 W/m2 CLR
02:28 13.2 °F 11.6 °F 1016.5 in WNW 33.8 mph 33.8 mph 90 % 0.0 in 0.0 W/m2 CLR
02:33 13.1 °F 11.5 °F 1016.5 in WNW 30.6 mph 30.6 mph 90 % 0.0 in 0.0 W/m2 CLR
02:38 13.1 °F 11.4 °F 1016.5 in West 25.9 mph 25.9 mph 90 % 0.0 in 0.0 W/m2 CLR
02:43 13.1 °F 11.4 °F 1016.5 in West 33.3 mph 33.3 mph 90 % 0.0 in 0.0 W/m2 CLR
02:48 13.1 °F 11.4 °F 1016.5 in WNW 31.5 mph 31.5 mph 90 % 0.0 in 0.0 W/m2 CLR
02:53 13.1 °F 11.4 °F 1016.5 in WNW 19.3 mph 19.3 mph 90 % 0.0 in 0.0 W/m2 CLR
02:58 13.0 °F 11.4 °F 1016.5 in NW 24.1 mph 24.1 mph 90 % 0.0 in 0.0 W/m2 CLR
03:03 13.0 °F 11.4 °F 1016.8 in WNW 25.9 mph 25.9 mph 90 % 0.0 in 0.0 W/m2 CLR
03:08 12.9 °F 11.3 °F 1016.8 in West 18.5 mph 18.5 mph 90 % 0.0 in 0.0 W/m2 CLR
03:13 12.9 °F 11.3 °F 1016.8 in West 5.6 mph   90 % 0.0 in 0.0 W/m2 CLR
03:18 12.9 °F 11.4 °F 1016.8 in Calm     91 % 0.0 in 0.0 W/m2 CLR
03:23 12.8 °F 11.4 °F 1016.8 in Calm     91 % 0.0 in 0.0 W/m2 CLR
03:28 12.8 °F 11.2 °F 1016.8 in Calm     90 % 0.0 in 0.0 W/m2 CLR
03:33 12.8 °F 11.2 °F 1016.8 in Calm     90 % 0.3 in 0.0 W/m2 RA
03:38 12.8 °F 11.2 °F 1016.5 in Calm     90 % 0.3 in 0.0 W/m2 CLR
03:43 12.9 °F 11.3 °F 1016.5 in Calm     90 % 0.3 in 0.0 W/m2 CLR
03:48 12.9 °F 11.3 °F 1016.5 in Calm     90 % 0.3 in 0.0 W/m2 CLR
03:53 12.9 °F 11.3 °F 1016.5 in WNW 9.3 mph 9.3 mph 90 % 0.3 in 0.0 W/m2 CLR
03:58 12.9 °F 11.3 °F 1016.5 in Calm     90 % 0.3 in 0.0 W/m2 CLR
04:03 12.9 °F 11.3 °F 1016.5 in Calm     90 % 0.3 in 0.0 W/m2 CLR
04:08 12.9 °F 11.3 °F 1016.5 in Calm     90 % 0.3 in 0.0 W/m2 CLR
04:10 12.9 °F 11.2 °F 1016.5 in West 11.1 mph 11.1 mph 89 % 0.3 in 0.0 W/m2 CLR
04:15 12.9 °F 11.2 °F 1016.5 in Calm     89 % 0.3 in 0.0 W/m2 CLR
04:20 13.0 °F 11.2 °F 1016.5 in WSW 5.6 mph 5.6 mph 89 % 0.3 in 0.0 W/m2 CLR
04:25 13.0 °F 11.2 °F 1016.5 in West 7.4 mph 7.4 mph 89 % 0.3 in 0.0 W/m2 CLR
04:30 13.0 °F 11.2 °F 1016.5 in West 18.5 mph 18.5 mph 89 % 0.3 in 0.0 W/m2 CLR
04:35 13.0 °F 11.2 °F 1016.5 in NW 14.8 mph 14.8 mph 89 % 0.0 in 0.0 W/m2 CLR
04:40 13.1 °F 11.1 °F 1016.1 in West 11.1 mph 11.1 mph 88 % 0.0 in 0.0 W/m2 CLR
04:45 13.0 °F 11.1 °F 1016.1 in West 24.1 mph 24.1 mph 88 % 0.0 in 0.0 W/m2 CLR
04:50 13.1 °F 11.1 °F 1016.5 in WNW 11.3 mph 11.3 mph 88 % 0.0 in 0.0 W/m2 CLR
04:55 13.0 °F 11.1 °F 1016.5 in West 9.3 mph 9.3 mph 88 % 0.0 in 0.0 W/m2 CLR
05:00 13.1 °F 11.1 °F 1016.5 in West 14.8 mph 14.8 mph 88 % 0.0 in 0.0 W/m2 CLR
05:05 13.1 °F 11.1 °F 1016.5 in SW 17.7 mph 17.7 mph 88 % 0.0 in 0.0 W/m2 CLR
05:10 13.1 °F 10.9 °F 1016.1 in West 20.4 mph 20.4 mph 87 % 0.0 in 0.0 W/m2 CLR
05:15 13.1 °F 10.9 °F 1016.1 in West 9.7 mph 9.7 mph 87 % 0.0 in 0.0 W/m2 CLR
05:20 13.1 °F 10.9 °F 1016.1 in WNW 33.3 mph 33.3 mph 87 % 0.0 in 0.0 W/m2 CLR
05:25 13.0 °F 10.9 °F 1016.1 in WNW 22.2 mph 22.2 mph 87 % 0.0 in 0.0 W/m2 CLR
05:30 13.0 °F 10.9 °F 1016.1 in NW 22.2 mph 22.2 mph 87 % 0.0 in 0.0 W/m2 CLR
05:35 12.9 °F 10.8 °F 1016.1 in West 24.1 mph 24.1 mph 87 % 0.0 in 0.0 W/m2 CLR
05:40 13.0 °F 10.9 °F 1016.1 in WNW 25.9 mph 25.9 mph 87 % 0.0 in 0.0 W/m2 CLR
05:45 13.0 °F 10.9 °F 1016.1 in WNW 29.6 mph 29.6 mph 87 % 0.0 in 0.0 W/m2 CLR
05:50 12.9 °F 10.7 °F 1015.8 in West 27.4 mph 27.4 mph 86 % 0.0 in 0.0 W/m2 CLR
05:55 12.9 °F 10.7 °F 1015.8 in NW 22.2 mph 22.2 mph 86 % 0.0 in 0.0 W/m2 CLR
06:00 12.9 °F 10.7 °F 1016.1 in WNW 20.4 mph 20.4 mph 86 % 0.0 in 0.0 W/m2 CLR
06:05 12.9 °F 10.7 °F 1016.1 in WNW 27.8 mph 27.8 mph 86 % 0.0 in 0.0 W/m2 CLR
06:06 12.9 °F 10.7 °F 1016.1 in West 18.5 mph 18.5 mph 86 % 0.0 in 0.0 W/m2 CLR
06:11 13.0 °F 10.7 °F 1016.1 in WNW 24.1 mph 24.1 mph 86 % 0.0 in 0.0 W/m2 CLR
06:16 13.0 °F 10.7 °F 1016.1 in West 18.5 mph 18.5 mph 86 % 0.0 in 0.0 W/m2 CLR
06:21 13.0 °F 10.7 °F 1016.1 in West 22.2 mph 22.2 mph 86 % 0.0 in 0.0 W/m2 OVC
06:26 13.0 °F 10.7 °F 1016.1 in West 22.2 mph 22.2 mph 86 % 0.0 in 0.0 W/m2 OVC
06:31 13.0 °F 10.7 °F 1016.1 in WNW 22.2 mph 22.2 mph 86 % 0.0 in 0.0 W/m2 OVC
06:36 13.0 °F 10.7 °F 1016.1 in WNW 22.2 mph 22.2 mph 86 % 0.0 in 0.0 W/m2 OVC
06:41 13.0 °F 10.7 °F 1016.5 in West 13.0 mph 13.0 mph 86 % 0.0 in 0.0 W/m2 OVC
06:46 13.0 °F 10.7 °F 1016.5 in WSW 14.5 mph 14.5 mph 86 % 0.0 in 7.0 W/m2 BKN
06:51 13.0 °F 10.7 °F 1016.5 in West 7.4 mph 7.4 mph 86 % 0.0 in 11.0 W/m2 BKN
06:56 13.0 °F 10.7 °F 1016.5 in West 16.7 mph 16.7 mph 86 % 0.0 in 14.0 W/m2 BKN
07:01 13.0 °F 10.6 °F 1016.5 in West 9.3 mph 9.3 mph 85 % 0.0 in 12.0 W/m2 BKN
07:06 13.1 °F 10.6 °F 1016.5 in West 16.7 mph 16.7 mph 85 % 0.0 in 12.0 W/m2 BKN
07:11 13.1 °F 10.6 °F 1016.5 in West 5.6 mph 5.6 mph 85 % 0.0 in 12.0 W/m2 BKN
07:16 13.1 °F 10.6 °F 1016.8 in West 14.8 mph 14.8 mph 85 % 0.0 in 16.0 W/m2 BKN
07:21 13.1 °F 10.6 °F 1016.8 in WNW 20.4 mph 20.4 mph 85 % 0.0 in 18.0 W/m2 BKN
07:26 13.1 °F 10.7 °F 1016.8 in WNW 5.6 mph 5.6 mph 85 % 0.0 in 23.0 W/m2 BKN
07:31 13.1 °F 10.7 °F 1016.8 in WNW 5.6 mph 5.6 mph 85 % 0.0 in 23.0 W/m2 BKN
07:36 13.1 °F 10.7 °F 1016.8 in West 3.7 mph 3.7 mph 85 % 0.0 in 26.0 W/m2 BKN
07:41 13.1 °F 10.7 °F 1016.8 in West 12.9 mph 12.9 mph 85 % 0.0 in 35.0 W/m2 BKN
07:46 13.1 °F 10.7 °F 1016.8 in WNW 9.7 mph 9.7 mph 85 % 0.0 in 39.0 W/m2 BKN
07:51 13.1 °F 10.7 °F 1016.8 in WNW 5.6 mph 5.6 mph 85 % 0.0 in 44.0 W/m2 BKN
07:52 13.2 °F 10.7 °F 1016.8 in WSW 3.2 mph 3.2 mph 85 % 0.0 in 51.0 W/m2 BKN
07:57 13.2 °F 10.7 °F 1016.8 in West 25.9 mph 25.9 mph 85 % 0.0 in 60.0 W/m2 SCT
08:02 13.2 °F 10.8 °F 1016.8 in WNW 20.4 mph 20.4 mph 85 % 0.0 in 62.0 W/m2 SCT
08:07 13.2 °F 10.8 °F 1016.8 in WSW 24.1 mph 24.1 mph 85 % 0.0 in 63.0 W/m2 SCT
08:12 13.3 °F 10.8 °F 1016.8 in WSW 13.0 mph 13.0 mph 85 % 0.0 in 76.0 W/m2 FEW
08:17 13.3 °F 10.6 °F 1016.5 in West 20.4 mph 20.4 mph 84 % 0.0 in 93.0 W/m2 FEW
08:22 13.3 °F 10.7 °F 1016.8 in WSW 24.1 mph 24.1 mph 84 % 0.0 in 107.0 W/m2 CLR
08:27 13.4 °F 10.7 °F 1016.8 in WSW 24.1 mph 24.1 mph 84 % 0.0 in 107.0 W/m2 CLR
08:32 13.4 °F 10.8 °F 1016.8 in West 20.4 mph 20.4 mph 84 % 0.0 in 107.0 W/m2 CLR
08:37 13.5 °F 10.8 °F 1016.8 in NW 18.5 mph 18.5 mph 84 % 0.0 in 111.0 W/m2 CLR
08:42 13.6 °F 10.7 °F 1016.8 in West 9.3 mph 9.3 mph 83 % 0.0 in 116.0 W/m2 CLR
08:47 13.6 °F 10.8 °F 1016.8 in WNW 18.5 mph 18.5 mph 83 % 0.0 in 113.0 W/m2 CLR
08:52 13.7 °F 10.8 °F 1017.2 in West 5.6 mph 5.6 mph 83 % 0.0 in 107.0 W/m2 CLR
08:57 13.7 °F 10.9 °F 1017.2 in WNW 5.6 mph   83 % 0.0 in 97.0 W/m2 CLR
09:02 13.8 °F 11.1 °F 1017.2 in Calm   0.6 mph 84 % 0.0 in 90.0 W/m2 CLR
09:07 13.8 °F 11.0 °F 1017.2 in West 11.1 mph 11.1 mph 83 % 0.0 in 88.0 W/m2 CLR
09:12 13.9 °F 11.1 °F 1017.2 in WNW 7.4 mph 7.4 mph 83 % 0.0 in 100.0 W/m2 CLR
09:17 13.9 °F 11.1 °F 1017.5 in WSW 5.6 mph 5.6 mph 83 % 0.0 in 123.0 W/m2 CLR
09:22 14.0 °F 11.2 °F 1017.5 in WNW 5.6 mph   83 % 0.0 in 134.0 W/m2 CLR
09:27 14.1 °F 11.3 °F 1017.5 in West 20.9 mph 20.9 mph 83 % 0.0 in 151.0 W/m2 CLR
09:32 14.2 °F 11.1 °F 1017.5 in NW 11.1 mph 11.1 mph 82 % 0.0 in 153.0 W/m2 CLR
09:37 14.3 °F 11.2 °F 1017.5 in West 8.0 mph 8.0 mph 82 % 0.0 in 169.0 W/m2 CLR
09:42 14.4 °F 11.2 °F 1017.5 in West 9.3 mph 9.3 mph 81 % 0.0 in 160.0 W/m2 CLR
09:47 14.5 °F 11.3 °F 1017.5 in WNW 7.4 mph 7.4 mph 81 % 0.0 in 172.0 W/m2 CLR
09:52 14.6 °F 11.4 °F 1017.5 in West 16.7 mph 16.7 mph 81 % 0.0 in 216.0 W/m2 CLR
09:57 14.8 °F 11.3 °F 1017.5 in West 18.5 mph 18.5 mph 80 % 0.0 in 397.0 W/m2 CLR
10:02 14.9 °F 11.3 °F 1017.5 in West 25.9 mph 25.9 mph 79 % 0.0 in 318.0 W/m2 CLR
10:07 15.1 °F 11.6 °F 1017.5 in WNW 18.5 mph 18.5 mph 80 % 0.0 in 394.0 W/m2 CLR
10:12 15.3 °F 11.8 °F 1017.5 in WNW 16.1 mph 16.1 mph 80 % 0.0 in 313.0 W/m2 CLR
10:17 15.4 °F 11.9 °F 1017.5 in WNW 24.1 mph 24.1 mph 80 % 0.0 in 388.0 W/m2 CLR
10:22 15.4 °F 11.8 °F 1017.2 in WNW 20.4 mph 20.4 mph 79 % 0.0 in 313.0 W/m2 CLR
10:27 15.6 °F 12.0 °F 1017.2 in WNW 29.0 mph 29.0 mph 79 % 0.0 in 283.0 W/m2 CLR
10:32 15.6 °F 11.7 °F 1017.5 in WNW 19.3 mph 19.3 mph 78 % 0.0 in 338.0 W/m2 CLR
10:37 15.7 °F 11.9 °F 1017.5 in West 18.5 mph 18.5 mph 78 % 0.0 in 318.0 W/m2 CLR
10:42 15.8 °F 11.8 °F 1017.5 in West 20.9 mph 20.9 mph 77 % 0.0 in 304.0 W/m2 CLR
10:47 15.8 °F 11.8 °F 1017.5 in NW 24.1 mph 24.1 mph 77 % 0.0 in 341.0 W/m2 CLR
10:52 16.0 °F 12.2 °F 1017.5 in WNW 27.4 mph 27.4 mph 78 % 0.0 in 404.0 W/m2 CLR
10:57 16.1 °F 11.9 °F 1017.5 in WNW 24.1 mph 24.1 mph 76 % 0.0 in 373.0 W/m2 CLR
11:02 16.2 °F 12.0 °F 1017.5 in NW 25.9 mph 25.9 mph 76 % 0.0 in 299.0 W/m2 CLR
11:08 16.2 °F 11.9 °F 1017.5 in NW 30.6 mph 30.6 mph 76 % 0.0 in 255.0 W/m2 CLR
11:13 16.1 °F 11.9 °F 1017.5 in NNW 22.5 mph 22.5 mph 76 % 0.0 in 211.0 W/m2 CLR
11:18 16.2 °F 12.0 °F 1017.8 in WNW 27.8 mph 27.8 mph 76 % 0.0 in 251.0 W/m2 CLR
11:23 16.3 °F 12.2 °F 1017.8 in NW 22.2 mph 22.2 mph 77 % 0.0 in 239.0 W/m2 CLR
11:28 16.3 °F 12.1 °F 1017.8 in NW 18.5 mph 18.5 mph 76 % 0.0 in 234.0 W/m2 CLR
11:33 16.4 °F 12.2 °F 1017.8 in WNW 25.9 mph 25.9 mph 76 % 0.0 in 251.0 W/m2 CLR
11:38 16.4 °F 11.9 °F 1017.8 in WNW 24.1 mph 24.1 mph 75 % 0.0 in 234.0 W/m2 CLR
11:43 16.4 °F 11.9 °F 1017.8 in NNW 25.9 mph 25.9 mph 75 % 0.0 in 237.0 W/m2 CLR
11:48 16.4 °F 12.0 °F 1017.8 in NNW 20.4 mph 20.4 mph 75 % 0.0 in 211.0 W/m2 CLR
11:53 16.5 °F 11.8 °F 1017.8 in North 18.5 mph 18.5 mph 74 % 0.0 in 292.0 W/m2 CLR
11:58 16.7 °F 12.0 °F 1017.8 in NW 16.7 mph 16.7 mph 74 % 0.0 in 306.0 W/m2 CLR
12:03 16.8 °F 12.2 °F 1017.5 in NW 20.4 mph 20.4 mph 74 % 0.0 in 290.0 W/m2 CLR
12:08 16.9 °F 12.3 °F 1017.5 in West 9.3 mph 9.3 mph 74 % 0.0 in 427.0 W/m2 CLR
12:13 17.2 °F 12.3 °F 1017.5 in NW 9.3 mph 9.3 mph 73 % 0.0 in 489.0 W/m2 CLR
12:18 17.4 °F 12.3 °F 1017.5 in NW 18.5 mph 18.5 mph 72 % 0.0 in 362.0 W/m2 CLR
12:23 17.5 °F 12.4 °F 1017.2 in WNW 14.8 mph 14.8 mph 72 % 0.0 in 394.0 W/m2 CLR
12:28 17.7 °F 12.8 °F 1017.2 in WNW 14.8 mph 14.8 mph 73 % 0.0 in 427.0 W/m2 CLR
12:33 17.9 °F 12.6 °F 1017.2 in West 18.5 mph 18.5 mph 71 % 0.0 in 487.0 W/m2 CLR
12:38 17.8 °F 12.4 °F 1017.2 in WSW 20.4 mph 20.4 mph 71 % 0.0 in 385.0 W/m2 CLR
12:43 17.7 °F 12.4 °F 1017.2 in WNW 7.4 mph 7.4 mph 71 % 0.0 in 374.0 W/m2 CLR
12:48 17.9 °F 12.6 °F 1017.2 in NW 13.0 mph 13.0 mph 71 % 0.0 in 418.0 W/m2 CLR
12:53 18.2 °F 12.6 °F 1017.2 in NW 20.4 mph 20.4 mph 70 % 0.0 in 580.0 W/m2 CLR
12:58 18.4 °F 12.8 °F 1016.8 in NW 18.5 mph 18.5 mph 70 % 0.0 in 499.0 W/m2 CLR
13:03 18.4 °F 12.6 °F 1016.8 in West 18.5 mph 18.5 mph 69 % 0.0 in 508.0 W/m2 CLR
13:08 18.5 °F 12.7 °F 1016.8 in WNW 17.7 mph 17.7 mph 69 % 0.0 in 589.0 W/m2 CLR
13:13 18.6 °F 12.6 °F 1016.8 in WNW 11.1 mph 11.1 mph 68 % 0.0 in 571.0 W/m2 CLR
13:18 18.8 °F 12.8 °F 1016.8 in NW 20.4 mph 20.4 mph 68 % 0.0 in 766.0 W/m2 CLR
13:23 19.1 °F 12.8 °F 1016.5 in WNW 18.5 mph 18.5 mph 67 % 0.0 in 624.0 W/m2 CLR
13:24 19.1 °F 12.6 °F 1016.5 in WNW 9.3 mph 9.3 mph 66 % 0.0 in 686.0 W/m2 CLR
13:29 19.3 °F 13.1 °F 1016.5 in NW 18.5 mph 18.5 mph 67 % 0.0 in 642.0 W/m2 CLR
13:44 19.7 °F 13.2 °F 1016.1 in WNW 9.3 mph 9.3 mph 66 % 0.0 in 499.0 W/m2 CLR
13:49 19.9 °F 12.9 °F 1016.1 in West 5.6 mph 5.6 mph 64 % 0.0 in 870.0 W/m2 CLR
13:54 19.9 °F 13.3 °F 1016.1 in WNW 7.4 mph 7.4 mph 66 % 0.0 in 642.0 W/m2 CLR
13:59 20.2 °F 13.4 °F 1016.1 in WNW 7.4 mph 7.4 mph 65 % 0.0 in 1174.0 W/m2 CLR
14:04 20.2 °F 13.2 °F 1016.1 in Calm     64 % 0.0 in 1125.0 W/m2 CLR
14:09 20.6 °F 13.3 °F 1016.1 in WNW 14.8 mph 14.8 mph 63 % 0.0 in 1053.0 W/m2 CLR
14:14 20.6 °F 13.1 °F 1016.1 in WSW 13.0 mph 13.0 mph 62 % 0.0 in 1236.0 W/m2 CLR
14:19 20.7 °F 13.2 °F 1015.8 in Calm     62 % 0.0 in 376.0 W/m2 CLR
14:24 20.8 °F 13.5 °F 1015.8 in NNW 7.4 mph 7.4 mph 63 % 0.0 in 353.0 W/m2 CLR
14:29 20.6 °F 13.3 °F 1015.8 in WNW 22.2 mph 22.2 mph 63 % 0.0 in 302.0 W/m2 CLR
14:34 20.2 °F 12.9 °F 1015.8 in WNW 11.1 mph 11.1 mph 63 % 0.0 in 278.0 W/m2 CLR
14:39 20.4 °F 13.7 °F 1015.8 in NW 18.5 mph 18.5 mph 65 % 0.0 in 1158.0 W/m2 CLR
14:44 20.4 °F 13.2 °F 1015.8 in WNW 9.7 mph 9.7 mph 63 % 0.0 in 364.0 W/m2 CLR
14:49 20.8 °F 13.9 °F 1015.8 in WNW 14.8 mph 14.8 mph 65 % 0.0 in 1151.0 W/m2 CLR
14:54 20.8 °F 13.5 °F 1015.8 in NW 13.0 mph 13.0 mph 63 % 0.0 in 276.0 W/m2 CLR
14:59 20.7 °F 13.2 °F 1015.8 in NNW 7.4 mph 7.4 mph 62 % 0.0 in 1083.0 W/m2 CLR
15:04 21.1 °F 13.3 °F 1015.8 in WNW 22.2 mph 22.2 mph 61 % 0.0 in 1046.0 W/m2 CLR
15:09 21.4 °F 13.6 °F 1015.8 in NNW 20.4 mph 20.4 mph 61 % 0.0 in 1027.0 W/m2 CLR
15:10 21.4 °F 13.6 °F 1015.8 in West 20.4 mph 20.4 mph 61 % 0.0 in 1018.0 W/m2 CLR
15:15 21.7 °F 14.3 °F 1015.5 in WSW 19.3 mph 19.3 mph 63 % 0.0 in 1013.0 W/m2 CLR
15:20 21.7 °F 13.1 °F 1015.5 in West 16.7 mph 16.7 mph 58 % 0.0 in 979.0 W/m2 CLR
15:25 21.9 °F 13.8 °F 1015.5 in WNW 11.3 mph 11.3 mph 60 % 0.0 in 1009.0 W/m2 CLR
15:30 22.1 °F 13.4 °F 1015.1 in WSW 7.4 mph 7.4 mph 58 % 0.0 in 1020.0 W/m2 CLR
15:31 22.1 °F 13.2 °F 1015.5 in WNW 9.3 mph 9.3 mph 57 % 0.0 in 995.0 W/m2 CLR
15:36 22.3 °F 13.3 °F 1015.5 in West 5.6 mph 5.6 mph 57 % 0.0 in 1046.0 W/m2 CLR
15:41 22.3 °F 13.6 °F 1015.1 in NNW 7.4 mph 7.4 mph 58 % 0.0 in 965.0 W/m2 CLR
15:46 22.2 °F 12.7 °F 1015.1 in Calm     55 % 0.0 in 227.0 W/m2 CLR
15:51 21.9 °F 13.6 °F 1015.1 in West 7.4 mph 7.4 mph 59 % 0.0 in 668.0 W/m2 CLR
15:56 21.8 °F 13.2 °F 1015.1 in North 5.6 mph 5.6 mph 58 % 0.0 in 726.0 W/m2 CLR
16:01 22.1 °F 13.2 °F 1014.8 in Calm     57 % 0.0 in 893.0 W/m2 CLR
16:06 22.7 °F 14.0 °F 1014.8 in WNW 11.1 mph 11.1 mph 58 % 0.0 in 886.0 W/m2 CLR
16:11 22.8 °F 13.8 °F 1014.8 in Calm     57 % 0.0 in 879.0 W/m2 CLR
16:16 22.7 °F 12.7 °F 1014.8 in Calm     53 % 0.0 in 942.0 W/m2 CLR
16:21 22.6 °F 12.6 °F 1014.8 in Calm     53 % 0.0 in 918.0 W/m2 CLR
16:26 22.9 °F 13.7 °F 1014.8 in NW 13.0 mph 13.0 mph 56 % 0.0 in 916.0 W/m2 CLR
16:31 22.8 °F 13.0 °F 1014.4 in North 1.9 mph 1.9 mph 54 % 0.0 in 171.0 W/m2 CLR
16:36 22.7 °F 12.9 °F 1014.4 in Calm     54 % 0.0 in 213.0 W/m2 CLR
16:41 22.7 °F 13.2 °F 1014.4 in Calm     55 % 0.0 in 253.0 W/m2 CLR
16:46 22.8 °F 12.7 °F 1014.1 in Calm     53 % 0.0 in 923.0 W/m2 CLR
16:51 23.2 °F 13.3 °F 1014.1 in Calm     54 % 0.0 in 921.0 W/m2 CLR
16:56 23.6 °F 13.4 °F 1014.1 in West 9.7 mph 9.7 mph 53 % 0.0 in 898.0 W/m2 CLR
17:01 23.7 °F 12.9 °F 1014.1 in NW 3.7 mph 3.7 mph 51 % 0.0 in 877.0 W/m2 CLR
17:06 23.7 °F 12.7 °F 1014.1 in West 14.5 mph 14.5 mph 50 % 0.0 in 823.0 W/m2 CLR
17:11 23.6 °F 13.2 °F 1014.1 in NW 16.7 mph 16.7 mph 52 % 0.0 in 786.0 W/m2 CLR
17:16 23.7 °F 12.6 °F 1014.1 in WNW 13.0 mph 13.0 mph 50 % 0.0 in 752.0 W/m2 CLR
17:21 23.8 °F 13.3 °F 1014.1 in WNW 7.4 mph 7.4 mph 52 % 0.0 in 717.0 W/m2 CLR
17:26 23.8 °F 13.4 °F 1014.1 in Calm     52 % 0.0 in 686.0 W/m2 CLR
17:31 24.1 °F 12.4 °F 1014.1 in WNW 16.7 mph 16.7 mph 48 % 0.0 in 666.0 W/m2 CLR
17:32 24.0 °F 12.3 °F 1014.1 in West 17.7 mph 17.7 mph 48 % 0.0 in 666.0 W/m2 CLR
17:37 23.7 °F 12.6 °F 1014.1 in West 11.3 mph 11.3 mph 50 % 0.0 in 656.0 W/m2 CLR
17:42 23.3 °F 12.6 °F 1014.1 in NW 9.7 mph 9.7 mph 51 % 0.0 in 174.0 W/m2 CLR
17:47 23.3 °F 12.3 °F 1013.8 in Calm     50 % 0.0 in 689.0 W/m2 CLR
17:52 23.7 °F 13.5 °F 1013.8 in NNE 14.8 mph 14.8 mph 53 % 0.0 in 642.0 W/m2 CLR
17:57 23.7 °F 12.9 °F 1013.8 in NNW 9.3 mph 9.3 mph 51 % 0.0 in 578.0 W/m2 CLR
18:02 23.8 °F 12.4 °F 1013.8 in WNW 9.7 mph 9.7 mph 49 % 0.0 in 578.0 W/m2 CLR
18:07 23.9 °F 12.5 °F 1013.8 in WSW 5.6 mph 5.6 mph 49 % 0.0 in 555.0 W/m2 CLR
18:12 23.9 °F 12.8 °F 1013.4 in North 5.6 mph 5.6 mph 50 % 0.0 in 536.0 W/m2 CLR
18:17 23.9 °F 11.9 °F 1013.4 in NW 5.6 mph   47 % 0.0 in 510.0 W/m2 CLR
18:22 23.9 °F 12.9 °F 1013.4 in Calm     50 % 0.0 in 492.0 W/m2 CLR
18:27 24.1 °F 12.4 °F 1013.4 in Calm     48 % 0.0 in 492.0 W/m2 CLR
18:32 24.2 °F 12.8 °F 1013.1 in NW 13.0 mph 13.0 mph 49 % 0.0 in 225.0 W/m2 CLR
18:37 24.1 °F 13.0 °F 1013.1 in NW 16.7 mph 16.7 mph 50 % 0.0 in 446.0 W/m2 CLR
18:42 24.0 °F 13.2 °F 1013.1 in WNW 7.4 mph 7.4 mph 51 % 0.0 in 431.0 W/m2 CLR
18:47 24.2 °F 12.4 °F 1013.1 in Calm     48 % 0.0 in 413.0 W/m2 CLR
18:48 24.2 °F 12.8 °F 1013.1 in Calm     49 % 0.0 in 410.0 W/m2 CLR
18:53 24.5 °F 12.8 °F 1013.1 in NW 6.4 mph 6.4 mph 48 % 0.0 in 397.0 W/m2 CLR
18:58 24.5 °F 12.4 °F 1013.1 in NW 11.3 mph 11.3 mph 47 % 0.0 in 383.0 W/m2 CLR
19:03 24.3 °F 12.6 °F 1013.1 in West 7.4 mph 7.4 mph 48 % 0.0 in 371.0 W/m2 CLR
19:08 24.3 °F 12.2 °F 1013.1 in NNW 3.2 mph 3.2 mph 47 % 0.0 in 350.0 W/m2 CLR
19:13 24.4 °F 13.1 °F 1013.1 in Calm     49 % 0.0 in 334.0 W/m2 CLR
19:18 24.5 °F 12.8 °F 1013.1 in Calm     48 % 0.0 in 320.0 W/m2 CLR
19:28 24.3 °F 12.2 °F 1013.1 in North 5.6 mph   47 % 0.0 in 287.0 W/m2 CLR
19:33 24.3 °F 12.2 °F 1013.1 in Calm     47 % 0.0 in 267.0 W/m2 CLR
19:38 24.2 °F 12.5 °F 1013.1 in Calm     48 % 0.0 in 257.0 W/m2 CLR
19:43 24.2 °F 11.9 °F 1013.1 in Calm     46 % 0.0 in 216.0 W/m2 CLR
19:48 24.3 °F 12.2 °F 1013.1 in North 9.3 mph 9.3 mph 47 % 0.0 in 216.0 W/m2 CLR
19:53 24.1 °F 11.8 °F 1013.1 in Calm     46 % 0.0 in 199.0 W/m2 CLR
19:58 23.9 °F 11.9 °F 1013.1 in WNW 5.6 mph 5.6 mph 47 % 0.0 in 176.0 W/m2 CLR
20:03 23.9 °F 11.3 °F 1013.1 in Calm     45 % 0.0 in 123.0 W/m2 CLR
20:08 24.0 °F 12.0 °F 1013.1 in WNW 5.6 mph 5.6 mph 47 % 0.0 in 111.0 W/m2 CLR
20:13 23.8 °F 11.1 °F 1013.1 in NNW 7.4 mph 7.4 mph 45 % 0.0 in 81.0 W/m2 CLR
20:18 23.6 °F 11.6 °F 1013.1 in Calm     47 % 0.0 in 128.0 W/m2 CLR
20:23 23.6 °F 11.9 °F 1013.1 in Calm     48 % 0.0 in 118.0 W/m2 CLR
20:24 23.6 °F 11.9 °F 1013.1 in Calm     48 % 0.0 in 114.0 W/m2 CLR
20:29 23.7 °F 11.4 °F 1013.1 in Calm     46 % 0.0 in 88.0 W/m2 CLR
20:34 23.7 °F 11.7 °F 1013.1 in Calm     47 % 0.0 in 86.0 W/m2 CLR
20:39 23.4 °F 11.8 °F 1012.8 in Calm     48 % 0.0 in 62.0 W/m2 SCT
20:44 23.1 °F 11.8 °F 1012.8 in Calm     49 % 0.0 in 44.0 W/m2 BKN
20:49 22.9 °F 11.9 °F 1012.8 in Calm     50 % 0.0 in 35.0 W/m2 BKN
20:54 22.8 °F 12.7 °F 1012.8 in Calm     53 % 0.0 in 28.0 W/m2 BKN
21:04 22.2 °F 13.2 °F 1012.8 in Calm     57 % 0.0 in 19.0 W/m2 BKN
21:09 21.7 °F 12.3 °F 1012.8 in Calm     55 % 0.0 in 16.0 W/m2 BKN
21:14 21.5 °F 11.8 °F 1013.1 in Calm     54 % 0.0 in 12.0 W/m2 BKN
21:19 21.3 °F 11.9 °F 1013.1 in Calm     55 % 0.0 in 11.0 W/m2 BKN
21:24 21.2 °F 11.8 °F 1013.1 in Calm     55 % 0.0 in 7.0 W/m2 BKN
21:29 21.0 °F 11.9 °F 1013.1 in Calm     56 % 0.0 in 5.0 W/m2 OVC
21:34 20.9 °F 12.3 °F 1013.1 in Calm     58 % 0.0 in 0.0 W/m2 OVC
21:39 20.7 °F 12.4 °F 1013.1 in Calm     59 % 0.0 in 0.0 W/m2 CLR
21:44 20.6 °F 12.5 °F 1013.1 in Calm     60 % 0.0 in 0.0 W/m2 CLR
21:49 20.3 °F 13.6 °F 1013.1 in Calm     65 % 0.0 in 0.0 W/m2 CLR
21:54 19.9 °F 13.6 °F 1013.1 in Calm     67 % 0.0 in 0.0 W/m2 CLR
21:59 19.5 °F 13.7 °F 1013.1 in Calm     69 % 0.0 in 0.0 W/m2 CLR
22:04 19.2 °F 13.6 °F 1013.1 in Calm     70 % 0.0 in 0.0 W/m2 CLR
22:09 18.8 °F 13.0 °F 1013.1 in Calm     69 % 0.0 in 0.0 W/m2 CLR
22:14 18.7 °F 13.1 °F 1013.1 in Calm     70 % 0.0 in 0.0 W/m2 CLR
22:19 18.4 °F 13.1 °F 1013.4 in Calm     71 % 0.0 in 0.0 W/m2 CLR
22:24 18.3 °F 13.6 °F 1013.4 in Calm     74 % 0.0 in 0.0 W/m2 CLR
22:29 17.9 °F 13.6 °F 1013.4 in Calm     76 % 0.0 in 0.0 W/m2 CLR
22:34 17.6 °F 12.9 °F 1013.8 in Calm     74 % 0.0 in 0.0 W/m2 CLR
22:39 17.4 °F 13.4 °F 1013.8 in Calm     77 % 0.0 in 0.0 W/m2 CLR
22:44 17.2 °F 13.3 °F 1013.8 in Calm     78 % 0.0 in 0.0 W/m2 CLR
22:49 16.9 °F 13.3 °F 1013.8 in Calm     79 % 0.0 in 0.0 W/m2 CLR
22:54 16.7 °F 13.3 °F 1013.8 in Calm     80 % 0.0 in 0.0 W/m2 CLR
22:59 16.6 °F 13.1 °F 1013.8 in Calm     80 % 0.0 in 0.0 W/m2 CLR
23:04 16.4 °F 13.0 °F 1013.4 in Calm     80 % 0.0 in 0.0 W/m2 CLR
23:09 16.4 °F 13.1 °F 1013.4 in Calm     81 % 0.0 in 0.0 W/m2 CLR
23:14 16.3 °F 13.2 °F 1013.4 in Calm     82 % 0.0 in 0.0 W/m2 CLR
23:19 16.1 °F 13.1 °F 1013.4 in Calm     82 % 0.0 in 0.0 W/m2 CLR
23:24 15.9 °F 13.1 °F 1013.4 in Calm     83 % 0.0 in 0.0 W/m2 CLR
23:29 15.8 °F 12.9 °F 1013.4 in Calm     83 % 0.0 in 0.0 W/m2 CLR
23:34 15.9 °F 12.7 °F 1013.4 in Calm     81 % 0.0 in 0.0 W/m2 CLR
23:39 16.2 °F 12.8 °F 1013.4 in Calm     80 % 0.0 in 0.0 W/m2 CLR
23:44 16.3 °F 12.8 °F 1013.4 in Calm     80 % 0.0 in 0.0 W/m2 CLR
23:49 16.2 °F 12.6 °F 1013.4 in Calm     79 % 0.0 in 0.0 W/m2 CLR
23:54 16.2 °F 12.8 °F 1013.4 in Calm     80 % 0.0 in 0.0 W/m2 CLR
23:59 16.0 °F 12.7 °F 1013.1 in Calm     81 % 0.0 in 0.0 W/m2 CLR
Lo Temps de Massalio
Compliments of Weather Underground - 1.25 mb